Time;durP1;ratioP1;P1;durP2;ratioP2;P2;SDS_P1;SDS_P2;PMS_P1;PMS_P2;Temp;Humidity;BMP_temperature;BMP_pressure;BME280_temperature;BME280_humidity;BME280_pressure;Samples;Min_cycle;Max_cycle;Signal;HPM_P1;HPM_P2
2022/08/04 02:13:08;;;;;;;;;;;;;;;;;;;;;
2022/08/04 06:57:33;;;;;;;;;5.00;5.00;;;;;27.57;100.00;101065.69;5916268;24;28503;-90
2022/08/04 07:00:10;;;;;;;;;7.67;7.00;;;;;27.55;100.00;101071.25;6028500;23;28596;-90
2022/08/04 07:02:54;;;;;;;;;7.33;7.33;;;;;27.60;100.00;101087.31;6333572;22;28321;-91
2022/08/04 07:05:21;;;;;;;;;7.00;7.00;;;;;27.39;100.00;101092.28;6360200;22;28276;-91
2022/08/04 07:07:48;;;;;;;;;6.33;6.33;;;;;27.33;100.00;101098.97;6361828;22;28412;-91
2022/08/04 07:10:15;;;;;;;;;7.00;7.00;;;;;27.24;100.00;101094.06;6333500;22;29148;-91
2022/08/04 07:12:42;;;;;;;;;7.00;7.00;;;;;27.23;100.00;101101.38;6359725;22;28215;-89
2022/08/04 07:15:15;;;;;;;;;5.67;5.67;;;;;27.23;100.00;101089.56;6361955;22;28428;-91
2022/08/04 07:18:03;;;;;;;;;5.33;5.33;;;;;27.24;100.00;101088.63;6359326;22;29686;-91
2022/08/04 07:20:33;;;;;;;;;5.00;5.00;;;;;27.27;100.00;101092.03;6360005;22;28602;-91
2022/08/04 07:23:00;;;;;;;;;8.00;7.33;;;;;27.24;100.00;101088.63;6334250;22;28262;-91
2022/08/04 07:25:28;;;;;;;;;5.00;5.00;;;;;27.22;100.00;101074.22;6363190;22;28609;-91
2022/08/04 07:27:54;;;;;;;;;5.67;5.67;;;;;27.28;100.00;101069.25;6363445;22;28385;-91
2022/08/04 07:30:22;;;;;;;;;6.33;6.33;;;;;27.33;100.00;101077.19;6363621;22;28266;-91
2022/08/04 07:32:50;;;;;;;;;4.67;4.67;;;;;27.48;100.00;101078.09;6360262;22;28253;-91
2022/08/04 07:35:17;;;;;;;;;4.00;4.00;;;;;27.43;100.00;101081.09;6359700;22;28511;-91
2022/08/04 07:37:51;;;;;;;;;5.00;5.00;;;;;27.41;100.00;101079.44;6361080;22;29687;-91
2022/08/04 07:40:27;;;;;;;;;3.00;3.00;;;;;27.32;100.00;101074.56;6363392;22;28222;-91
2022/08/04 07:43:05;;;;;;;;;4.00;4.00;;;;;27.32;100.00;101080.88;6359874;22;28372;-91
2022/08/04 07:45:31;;;;;;;;;5.00;5.00;;;;;27.32;100.00;101090.91;6363094;22;28261;-91
2022/08/04 07:47:57;;;;;;;;;3.00;3.00;;;;;27.37;100.00;101083.31;6362589;22;28501;-91
2022/08/04 07:50:27;;;;;;;;;4.67;4.33;;;;;27.36;100.00;101077.00;6360802;22;28467;-91
2022/08/04 07:53:11;;;;;;;;;6.33;6.33;;;;;27.52;100.00;101065.13;6361561;22;28456;-91
2022/08/04 07:55:45;;;;;;;;;5.00;5.00;;;;;27.56;100.00;101073.00;6361327;22;28199;-91
2022/08/04 07:58:11;;;;;;;;;6.33;6.33;;;;;27.64;100.00;101077.97;6363181;22;29236;-91
2022/08/04 08:01:06;;;;;;;;;5.33;5.33;;;;;27.72;100.00;101083.81;6362231;22;28573;-94
2022/08/04 08:03:38;;;;;;;;;5.00;5.00;;;;;27.69;100.00;101094.91;6334336;22;28476;-91
2022/08/04 08:06:04;;;;;;;;;5.33;5.33;;;;;27.69;100.00;101102.22;6361062;22;28348;-91
2022/08/04 08:08:45;;;;;;;;;4.33;4.33;;;;;27.70;100.00;101085.78;6360563;22;29788;-91
2022/08/04 08:11:12;;;;;;;;;6.67;6.67;;;;;27.72;100.00;101080.22;6359360;22;28672;-91
2022/08/04 08:13:38;;;;;;;;;4.00;4.00;;;;;27.75;100.00;101069.97;6361867;22;28178;-91
2022/08/04 08:16:22;;;;;;;;;8.00;7.33;;;;;27.69;100.00;101073.09;6363244;22;28199;-91
2022/08/04 08:18:47;;;;;;;;;4.00;4.00;;;;;27.81;100.00;101075.03;6362597;22;28523;-91
2022/08/04 08:21:13;;;;;;;;;6.33;6.33;;;;;27.94;100.00;101071.50;6361652;22;28258;-91
2022/08/04 08:23:47;;;;;;;;;4.33;4.33;;;;;27.97;100.00;101087.72;6359939;22;28332;-92
2022/08/04 08:26:27;;;;;;;;;4.67;4.67;;;;;27.96;100.00;101095.03;6359932;22;28511;-92
2022/08/04 08:29:14;;;;;;;;;6.33;6.33;;;;;27.98;100.00;101100.41;6335113;22;29784;-92
2022/08/04 08:35:01;;;;;;;;;7.67;7.67;;;;;28.26;100.00;101109.50;6347418;22;29022;-92
2022/08/04 08:38:01;;;;;;;;;;;;;;;;;;;;;
2022/08/04 08:41:03;;;;;;;;;5.00;5.00;;;;;28.49;100.00;101086.16;6361136;22;56720;-90
2022/08/04 08:44:01;;;;;;;;;6.00;6.00;;;;;28.85;100.00;101074.63;6360394;22;28687;-90
2022/08/04 08:46:26;;;;;;;;;7.67;7.67;;;;;29.22;100.00;101076.69;6362945;22;28294;-90
2022/08/04 08:49:21;;;;;;;;;5.00;5.00;;;;;29.50;100.00;101078.31;6361376;22;28511;-90
2022/08/04 08:51:52;;;;;;;;;6.33;6.33;;;;;29.65;100.00;101070.00;6362385;22;28613;-90
2022/08/04 08:54:37;;;;;;;;;7.67;7.67;;;;;29.68;100.00;101062.47;6362573;22;28350;-90
2022/08/04 08:57:11;;;;;;;;;8.00;8.00;;;;;29.74;100.00;101077.53;6357058;22;44787;-90
2022/08/04 08:59:57;;;;;;;;;7.00;7.00;;;;;29.97;100.00;101084.09;6351067;22;45150;-90
2022/08/04 09:02:50;;;;;;;;;5.67;5.67;;;;;30.19;100.00;101083.41;6362349;22;28454;-90
2022/08/04 09:05:56;;;;;;;;;7.00;7.00;;;;;30.26;100.00;101084.66;6333004;22;28274;-90
2022/08/04 09:08:40;;;;;;;;;9.67;9.67;;;;;30.34;100.00;101092.31;6363248;22;28241;-89
2022/08/04 09:11:11;;;;;;;;;9.33;9.33;;;;;30.37;100.00;101096.69;6362387;22;28313;-90
2022/08/04 09:14:22;;;;;;;;;8.33;8.33;;;;;30.55;100.00;101098.06;6362673;22;28489;-91
2022/08/04 09:17:02;;;;;;;;;8.67;8.67;;;;;30.76;100.00;101092.84;6360505;22;28545;-89
2022/08/04 09:19:41;;;;;;;;;9.00;9.00;;;;;30.87;100.00;101100.22;6360788;22;28381;-90
2022/08/04 09:22:21;;;;;;;;;10.33;10.33;;;;;30.74;100.00;101092.06;6363020;22;28335;-91
2022/08/04 09:24:59;;;;;;;;;8.33;8.33;;;;;30.99;100.00;101093.81;6333507;22;30007;-90
2022/08/04 09:28:13;;;;;;;;;9.67;9.67;;;;;31.42;100.00;101091.41;6362043;22;28229;-90
2022/08/04 09:30:55;;;;;;;;;11.33;11.33;;;;;31.66;100.00;101097.72;6361718;22;28369;-90
2022/08/04 09:33:59;;;;;;;;;9.33;9.33;;;;;31.65;100.00;101101.47;6333964;22;28386;-90
2022/08/04 09:36:34;;;;;;;;;9.67;9.67;;;;;31.76;100.00;101096.97;6312081;22;29682;-90
2022/08/04 09:39:10;;;;;;;;;9.33;9.33;;;;;32.13;100.00;101099.47;6334194;22;28422;-91
2022/08/04 09:42:17;;;;;;;;;11.00;10.00;;;;;32.74;100.00;101108.09;6361601;22;28669;-92
2022/08/04 09:45:08;;;;;;;;;8.33;8.33;;;;;33.55;100.00;101098.41;6360761;22;28655;-91
2022/08/04 09:47:58;;;;;;;;;9.00;9.00;;;;;33.52;100.00;101099.59;6360595;22;28669;-92
2022/08/04 09:50:36;;;;;;;;;8.67;8.67;;;;;33.44;100.00;101096.63;6362245;22;28313;-90
2022/08/04 10:24:23;;;;;;;;;;;;;;;;;;;;;
2022/08/04 10:28:06;;;;;;;;;7.00;7.00;;;;;41.74;100.00;101075.31;6264285;22;56933;-91
2022/08/04 10:30:49;;;;;;;;;;;;;;;;;;;;;
2022/08/04 10:37:02;;;;;;;;;;;;;;;;;;;;;
2022/08/04 10:40:45;;;;;;;;;;;;;;;;;;;;;
2022/08/04 10:54:37;;;;;;;;;;;;;;;;;;;;;
2022/08/04 11:01:39;;;;;;;;;;;;;;;;;;;;;
2022/08/04 11:12:08;;;;;;;;;;;;;;;;;;;;;
2022/08/04 11:19:36;;;;;;;;;;;;;;;;;;;;;
2022/08/04 11:30:20;;;;;;;;;5.00;5.00;;;;;47.35;62.39;101069.38;6114150;23;28307;-92
2022/08/04 14:54:36;;;;;;;;;5.33;5.33;;;;;37.00;88.43;101043.25;6348131;22;28869;-94
2022/08/04 15:00:35;;;;;;;;;6.00;6.00;;;;;36.84;88.83;101043.09;6295020;22;28401;-90
2022/08/04 15:03:08;;;;;;;;;4.33;3.33;;;;;36.68;90.51;101047.44;6359323;22;38168;-89
2022/08/04 15:05:37;;;;;;;;;4.33;4.33;;;;;36.74;90.53;101047.81;6321816;22;45382;-88
2022/08/04 15:08:03;;;;;;;;;4.33;4.33;;;;;36.65;90.64;101047.75;6362120;22;28377;-89
2022/08/04 15:10:49;;;;;;;;;2.00;2.00;;;;;36.56;92.28;101045.94;6332971;22;28447;-90
2022/08/04 15:13:17;;;;;;;;;4.67;4.67;;;;;36.38;91.53;101056.13;6332038;22;28555;-89
2022/08/04 16:37:36;;;;;;;;;4.00;4.00;;;;;34.65;96.83;101061.84;6291632;22;29116;31
2022/08/04 16:43:43;;;;;;;;;3.33;3.33;;;;;34.51;97.03;101069.53;6180202;22;28257;-91
2022/08/04 16:47:05;;;;;;;;;4.00;4.00;;;;;34.46;97.13;101082.88;6236229;22;28217;-92
2022/08/04 17:00:50;;;;;;;;;;;;;;;;;;;;;
2022/08/04 17:03:19;;;;;;;;;5.67;5.67;;;;;34.86;96.28;101090.19;6361228;22;58077;-91
2022/08/04 17:05:45;;;;;;;;;5.00;5.00;;;;;34.70;96.67;101090.72;6333639;22;28686;-90
2022/08/04 17:08:21;;;;;;;;;4.00;4.00;;;;;34.71;96.72;101097.09;6362712;22;28390;-92
2022/08/04 17:10:47;;;;;;;;;5.00;5.00;;;;;34.64;97.63;101107.84;6334479;22;28502;-91
2022/08/04 17:17:06;;;;;;;;;4.00;4.00;;;;;34.44;95.35;101101.44;6234185;22;28416;-93
2022/08/04 17:20:23;;;;;;;;;4.00;4.00;;;;;34.19;95.65;101109.16;6208287;22;28481;-92
2022/08/04 17:22:50;;;;;;;;;4.33;4.33;;;;;33.98;94.73;101108.34;6207575;22;28455;-91
2022/08/04 17:25:18;;;;;;;;;5.00;5.00;;;;;33.77;95.37;101123.06;6218427;22;28694;-91
2022/08/04 17:35:23;;;;;;;;;;;;;;;;;;;;;
2022/08/04 17:41:34;;;;;;;;;4.33;4.33;;;;;32.99;92.91;101152.72;6334445;22;28462;-92
2022/08/04 17:45:22;;;;;;;;;;;;;;;;;;;;;
2022/08/04 17:47:51;;;;;;;;;2.00;2.00;;;;;32.84;91.52;101156.78;6233575;22;28232;-94
2022/08/04 17:51:10;;;;;;;;;3.00;3.00;;;;;32.57;91.69;101158.97;6363745;22;28361;-94
2022/08/04 18:08:14;;;;;;;;;2.00;2.00;;;;;31.85;92.73;101170.34;6092563;23;28756;-91
2022/08/04 18:10:42;;;;;;;;;3.00;3.00;;;;;31.72;92.70;101167.72;6245554;22;28256;-91
2022/08/04 18:13:08;;;;;;;;;4.00;4.00;;;;;31.59;93.60;101164.19;6329309;22;28340;-91
2022/08/04 18:15:34;;;;;;;;;2.67;2.67;;;;;31.54;92.92;101170.03;6311216;22;30071;-91
2022/08/04 18:18:15;;;;;;;;;3.00;3.00;;;;;31.43;93.92;101162.63;6330064;22;28279;-91
2022/08/04 18:20:41;;;;;;;;;3.00;3.00;;;;;31.25;94.04;101153.97;6332922;22;28373;-91
2022/08/04 18:23:12;;;;;;;;;3.00;3.00;;;;;31.17;94.47;101150.94;6328284;22;28484;-91
2022/08/04 18:25:38;;;;;;;;;3.33;3.33;;;;;31.16;94.36;101149.19;6301704;22;31072;-91
2022/08/04 18:28:08;;;;;;;;;3.00;3.00;;;;;31.05;94.79;101146.41;6330836;22;28244;-92
2022/08/04 18:30:35;;;;;;;;;2.33;2.33;;;;;31.00;95.18;101139.41;6329478;22;28676;-91
2022/08/04 18:33:01;;;;;;;;;3.00;3.00;;;;;30.94;95.43;101139.84;6330294;22;28302;-90
2022/08/04 18:35:44;;;;;;;;;3.33;3.33;;;;;30.93;95.35;101138.13;6330089;22;28398;-93
2022/08/04 18:38:10;;;;;;;;;4.67;4.00;;;;;30.84;95.16;101139.69;6329377;22;28294;-91
2022/08/04 18:40:35;;;;;;;;;6.00;4.67;;;;;30.70;95.47;101125.28;6301710;22;28306;-91
2022/08/04 18:43:01;;;;;;;;;4.00;4.00;;;;;30.59;95.66;101129.75;6329657;22;28408;-90
2022/08/04 18:45:26;;;;;;;;;3.00;3.00;;;;;30.54;95.94;101126.44;6299737;22;31440;-91
2022/08/04 18:47:52;;;;;;;;;3.33;3.33;;;;;30.43;96.39;101134.59;6325899;22;28500;-91
2022/08/04 18:50:20;;;;;;;;;3.33;3.33;;;;;30.58;96.25;101132.59;6302809;22;28355;-92
2022/08/04 18:52:45;;;;;;;;;3.00;3.00;;;;;30.38;96.56;101137.66;6329394;22;28404;-91
2022/08/04 18:55:11;;;;;;;;;4.67;4.67;;;;;30.35;96.91;101126.94;6300499;22;29851;-91
2022/08/04 18:57:39;;;;;;;;;2.00;2.00;;;;;30.28;97.42;101137.47;6300929;22;28492;-92
2022/08/04 19:00:05;;;;;;;;;4.00;4.00;;;;;30.23;97.65;101139.66;6331095;22;28345;-91
2022/08/04 19:02:31;;;;;;;;;4.00;4.00;;;;;30.20;97.94;101141.75;6328745;22;28582;-91
2022/08/04 19:04:56;;;;;;;;;2.00;2.00;;;;;30.14;97.85;101133.03;6302563;22;30415;-92
2022/08/04 19:07:22;;;;;;;;;3.00;3.00;;;;;30.10;97.62;101133.34;6352903;22;28238;-91
2022/08/04 19:09:47;;;;;;;;;3.33;3.33;;;;;30.04;98.04;101142.00;6362340;22;28186;-91
2022/08/04 19:12:12;;;;;;;;;3.00;3.00;;;;;30.01;98.31;101150.44;6361356;22;28265;-91
2022/08/04 19:14:38;;;;;;;;;2.00;2.00;;;;;29.97;98.90;101160.72;6334691;22;28340;-91
2022/08/04 19:17:04;;;;;;;;;3.00;3.00;;;;;29.95;98.87;101163.56;6363620;22;28281;-92
2022/08/04 19:19:29;;;;;;;;;3.67;3.67;;;;;29.86;98.66;101147.81;6363063;22;28185;-91
2022/08/04 19:21:56;;;;;;;;;3.00;3.00;;;;;29.81;99.72;101166.44;6362841;22;28611;-91
2022/08/04 19:24:21;;;;;;;;;3.00;3.00;;;;;29.75;99.10;101166.84;6363617;22;28398;-91
2022/08/04 19:26:46;;;;;;;;;2.33;2.00;;;;;29.73;100.00;101182.50;6334989;22;28286;-91
2022/08/04 19:29:13;;;;;;;;;2.00;2.00;;;;;29.72;100.00;101178.00;6334858;22;28416;-91
2022/08/04 19:31:39;;;;;;;;;3.00;3.00;;;;;29.77;100.00;101189.50;6360934;22;28633;-91
2022/08/04 19:42:35;;;;;;;;;;;;;;;;;;;;;
2022/08/04 19:45:28;;;;;;;;;;;;;;;;;;;;;
2022/08/04 19:48:43;;;;;;;;;;;;;;;;;;;;;
2022/08/04 19:59:09;;;;;;;;;2.00;2.00;;;;;29.95;100.00;101212.84;6116935;23;45425;-93
2022/08/04 20:23:18;;;;;;;;;2.00;2.00;;;;;29.67;100.00;101221.22;6176738;22;28585;-93
2022/08/04 20:27:04;;;;;;;;;;;;;;;;;;;;;
2022/08/04 20:30:02;;;;;;;;;3.00;3.00;;;;;29.61;100.00;101220.66;6155003;22;28509;-94
2022/08/04 20:33:14;;;;;;;;;;;;;;;;;;;;;
2022/08/04 20:46:01;;;;;;;;;2.00;2.00;;;;;29.47;100.00;101206.22;6114570;23;28238;-93
2022/08/04 20:49:21;;;;;;;;;3.00;3.00;;;;;29.42;100.00;101203.81;6013889;23;28259;-93
2022/08/04 20:52:48;;;;;;;;;;;;;;;;;;;;;
2022/08/04 20:56:06;;;;;;;;;3.33;3.33;;;;;29.39;100.00;101210.34;5917371;23;58152;-93
2022/08/04 21:09:20;;;;;;;;;4.33;4.33;;;;;29.06;100.00;101216.22;6113845;23;28551;-93
2022/08/04 21:12:09;;;;;;;;;;;;;;;;;;;;;
2022/08/04 21:15:20;;;;;;;;;4.00;4.00;;;;;29.04;100.00;101227.25;6121785;22;55254;-92
2022/08/04 21:18:31;;;;;;;;;4.00;4.00;;;;;29.00;100.00;101219.38;6327423;22;28543;-93
2022/08/04 21:21:46;;;;;;;;;;;;;;;;;;;;;
2022/08/04 21:28:42;;;;;;;;;;;;;;;;;;;;;
2022/08/04 21:32:11;;;;;;;;;;;;;;;;;;;;;
2022/08/04 21:35:11;;;;;;;;;;;;;;;;;;;;;
2022/08/04 21:38:23;;;;;;;;;4.33;4.33;;;;;28.54;100.00;101207.75;6328777;22;57353;-93
2022/08/04 21:45:22;;;;;;;;;;;;;;;;;;;;;
2022/08/04 21:48:41;;;;;;;;;;;;;;;;;;;;;
2022/08/04 21:55:20;;;;;;;;;;;;;;;;;;;;;
2022/08/04 22:11:55;;;;;;;;;;;;;;;;;;;;;
2022/08/04 22:15:11;;;;;;;;;;;;;;;;;;;;;
2022/08/04 22:18:13;;;;;;;;;5.00;5.00;;;;;27.99;100.00;101208.56;6291929;22;28602;-93
2022/08/04 22:20:41;;;;;;;;;8.00;7.33;;;;;27.91;100.00;101214.47;6330218;22;28238;-92
2022/08/04 22:23:44;;;;;;;;;6.00;6.00;;;;;27.87;100.00;101214.75;6301976;22;28530;-93
2022/08/04 22:26:59;;;;;;;;;;;;;;;;;;;;;
2022/08/04 22:29:45;;;;;;;;;5.67;5.67;;;;;27.79;100.00;101209.78;6321176;22;56773;-93
2022/08/04 22:32:59;;;;;;;;;;;;;;;;;;;;;
2022/08/04 22:35:28;;;;;;;;;6.33;6.33;;;;;27.59;100.00;101202.84;6282501;22;54046;-92
2022/08/04 22:38:45;;;;;;;;;;;;;;;;;;;;;
2022/08/04 22:42:08;;;;;;;;;2.33;2.33;;;;;27.45;100.00;101195.50;6288222;22;56895;-93
2022/08/04 22:45:15;;;;;;;;;;;;;;;;;;;;;
2022/08/04 22:48:22;;;;;;;;;;;;;;;;;;;;;
2022/08/04 22:58:13;;;;;;;;;4.00;4.00;;;;;27.39;100.00;101212.22;6314419;22;28258;-93
2022/08/04 23:01:11;;;;;;;;;;;;;;;;;;;;;
2022/08/04 23:04:16;;;;;;;;;;;;;;;;;;;;;
2022/08/04 23:07:24;;;;;;;;;3.00;3.00;;;;;27.43;100.00;101209.22;6337326;22;54886;-94
2022/08/04 23:10:27;;;;;;;;;4.00;4.00;;;;;27.40;100.00;101212.13;6331483;22;28297;-93
2022/08/04 23:13:15;;;;;;;;;3.67;3.67;;;;;27.40;100.00;101206.69;6362636;22;28961;-93
2022/08/04 23:16:22;;;;;;;;;5.33;5.33;;;;;27.40;100.00;101211.22;6362314;22;28597;-92
2022/08/04 23:19:23;;;;;;;;;;;;;;;;;;;;;
2022/08/04 23:22:10;;;;;;;;;;;;;;;;;;;;;
2022/08/04 23:25:05;;;;;;;;;4.00;4.00;;;;;27.56;100.00;101230.28;6358514;22;51380;-92
2022/08/04 23:35:17;;;;;;;;;;;;;;;;;;;;;
2022/08/04 23:37:52;;;;;;;;;;;;;;;;;;;;;
2022/08/04 23:41:02;;;;;;;;;;;;;;;;;;;;;
2022/08/04 23:50:39;;;;;;;;;4.67;4.67;;;;;27.47;100.00;101253.53;6339729;22;28553;-93
2022/08/04 23:53:29;;;;;;;;;;;;;;;;;;;;;
2022/08/04 23:56:24;;;;;;;;;2.67;2.67;;;;;27.38;100.00;101254.94;6360867;22;56037;-93
